This is the latest recevied weather packets stored in our database for station/object W0JRT-6. If no packets are shown the sender has not sent any weather packets the latest 10 day(s).
| Time | Temp. | Humidity | Pressure | Rain* | Wind** | Luminosity | Snow |
|---|---|---|---|---|---|---|---|
| 1777563604 | 16.67° C | 57% | 1014.4 hPa | 0 mm | - | - | - |
| 1777563006 | 16.11° C | 58% | 1014.6 hPa | 0 mm | - | - | - |
| 1777562398 | 16.11° C | 57% | 1014.9 hPa | 0 mm | - | - | - |
| 1777561801 | 15° C | 60% | 1015 hPa | 0 mm | - | - | - |
| 1777561203 | 15° C | 66% | 1015.1 hPa | 0 mm | - | - | - |
| 1777560610 | 14.44° C | 66% | 1015.3 hPa | 0 mm | - | - | - |
| 1777560008 | 14.44° C | 67% | 1015.6 hPa | 0 mm | - | - | - |
| 1777559402 | 13.33° C | 71% | 1015.8 hPa | 0 mm | - | - | - |
| 1777558205 | 12.78° C | 74% | 1016.4 hPa | 0 mm | - | - | - |
| 1777557604 | 11.67° C | 81% | 1016.7 hPa | 0 mm | - | - | - |
| 1777557005 | 11.11° C | 84% | 1016.8 hPa | 0 mm | - | - | - |
| 1777554610 | 8.89° C | 96% | 1017.6 hPa | 0 mm | - | - | - |
| 1777554000 | 8.33° C | 96% | 1017.9 hPa | 0 mm | - | - | - |
| 1777553399 | 7.22° C | 96% | 1018.1 hPa | 0 mm | - | - | - |
| 1777551598 | 5.56° C | 96% | 1018.2 hPa | 0 mm | - | - | - |
| 1777550412 | 5.56° C | 96% | 1018.4 hPa | 0 mm | - | - | - |
| 1777549799 | 5° C | 96% | 1018.4 hPa | 0 mm | - | - | - |
| 1777549205 | 4.44° C | 96% | 1018.5 hPa | 0 mm | - | - | - |
| 1777547409 | 3.89° C | 96% | 1018.7 hPa | 0 mm | - | - | - |
| 1777546801 | 3.89° C | 96% | 1018.8 hPa | 0 mm | - | - | - |
| 1777546204 | 3.89° C | 96% | 1019 hPa | 0 mm | - | - | - |
| 1777545603 | 3.89° C | 96% | 1019 hPa | 0 mm | - | - | - |
| 1777544413 | 4.44° C | 96% | 1019.1 hPa | 0 mm | - | - | - |
| 1777543812 | 4.44° C | 96% | 1019.2 hPa | 0 mm | - | - | - |
| 1777542606 | 4.44° C | 96% | 1019.1 hPa | 0 mm | - | - | - |
* Rain since midnight (hover to see other rain measurements)
** Current wind speed in m/s (hover to see current wind gust speed)